createdAt,value
2022-10-17T00:00:24.286Z,15.26
2022-10-17T00:01:17.483Z,15.25
2022-10-17T00:01:50.724Z,15.25
2022-10-17T00:02:24.117Z,15.24
2022-10-17T00:02:58.477Z,15.24
2022-10-17T00:03:31.965Z,15.23
2022-10-17T00:04:05.248Z,15.22
2022-10-17T00:04:38.756Z,15.20
2022-10-17T00:05:12.481Z,15.18
2022-10-17T00:05:47.798Z,15.17
2022-10-17T00:06:20.843Z,15.15
2022-10-17T00:06:53.996Z,15.13
2022-10-17T00:07:27.322Z,15.12
2022-10-17T00:08:00.624Z,15.09
2022-10-17T00:08:33.855Z,15.09
2022-10-17T00:09:07.106Z,15.07
2022-10-17T00:09:43.892Z,15.06
2022-10-17T00:10:17.894Z,15.04
2022-10-17T00:11:01.439Z,15.03
2022-10-17T00:11:34.713Z,15.01
2022-10-17T00:12:08.076Z,15.00
2022-10-17T00:12:41.358Z,14.97
2022-10-17T00:13:14.614Z,14.95
2022-10-17T00:13:49.642Z,14.92
2022-10-17T00:14:22.748Z,14.89
2022-10-17T00:14:56.089Z,14.87
2022-10-17T00:15:29.624Z,14.84
2022-10-17T00:16:02.831Z,14.82
2022-10-17T00:16:39.978Z,14.80
2022-10-17T00:17:13.217Z,14.78
2022-10-17T00:17:46.564Z,14.75
2022-10-17T00:18:20.559Z,14.73
2022-10-17T00:18:55.244Z,14.71
2022-10-17T00:19:28.505Z,14.68
2022-10-17T00:20:01.699Z,14.68
2022-10-17T00:20:37.850Z,14.68
2022-10-17T00:21:18.952Z,14.66
2022-10-17T00:21:52.464Z,14.65
2022-10-17T00:22:25.843Z,14.64
2022-10-17T00:22:59.249Z,14.63
2022-10-17T00:23:33.856Z,14.60
2022-10-17T00:24:07.261Z,14.58
2022-10-17T00:24:40.341Z,14.55
2022-10-17T00:25:13.844Z,14.53
2022-10-17T00:25:46.996Z,14.50
2022-10-17T00:26:21.224Z,14.46
2022-10-17T00:26:54.341Z,14.43
2022-10-17T00:27:27.737Z,14.42
2022-10-17T00:28:01.145Z,14.40
2022-10-17T00:28:34.385Z,14.39
2022-10-17T00:29:07.815Z,14.38
2022-10-17T00:29:41.128Z,14.37
2022-10-17T00:30:16.572Z,14.33
2022-10-17T00:30:57.077Z,14.30
2022-10-17T00:31:30.239Z,14.28
2022-10-17T00:32:03.349Z,14.26
2022-10-17T00:32:37.012Z,14.24
2022-10-17T00:33:10.094Z,14.22
2022-10-17T00:33:44.389Z,14.22
2022-10-17T00:34:17.474Z,14.21
2022-10-17T00:34:50.604Z,14.21
2022-10-17T00:35:23.611Z,14.21
2022-10-17T00:36:21.217Z,14.19
2022-10-17T00:36:54.412Z,14.17
2022-10-17T00:37:27.678Z,14.15
2022-10-17T00:38:00.839Z,14.14
2022-10-17T00:38:34.190Z,14.11
2022-10-17T00:39:07.509Z,14.11
2022-10-17T00:39:40.547Z,14.09
2022-10-17T00:40:13.671Z,14.07
2022-10-17T00:40:47.080Z,14.06
2022-10-17T00:41:23.320Z,14.04
2022-10-17T00:41:56.264Z,14.02
2022-10-17T00:42:30.067Z,14.01
2022-10-17T00:43:03.533Z,13.99
2022-10-17T00:44:03.628Z,13.99
2022-10-17T00:44:36.633Z,13.98
2022-10-17T00:45:27.974Z,13.98
2022-10-17T00:46:01.307Z,13.98
2022-10-17T00:46:37.330Z,13.99
2022-10-17T00:47:14.570Z,13.98
2022-10-17T00:47:54.180Z,13.99
2022-10-17T00:48:27.902Z,14.00
2022-10-17T00:49:13.051Z,13.99
2022-10-17T00:49:46.347Z,14.00
2022-10-17T00:50:20.347Z,14.01
2022-10-17T00:50:53.509Z,14.00
2022-10-17T00:51:51.250Z,14.00
2022-10-17T00:52:27.259Z,14.00
2022-10-17T00:53:03.200Z,14.00
2022-10-17T00:53:38.986Z,14.00
2022-10-17T00:54:15.242Z,14.01
2022-10-17T00:55:14.320Z,14.00
2022-10-17T00:55:53.419Z,14.00
2022-10-17T00:56:26.717Z,14.01
2022-10-17T00:57:00.469Z,14.00
2022-10-17T00:57:33.707Z,14.01
2022-10-17T00:58:07.004Z,14.01
2022-10-17T00:58:40.172Z,14.00
2022-10-17T00:59:15.341Z,13.97
2022-10-17T00:59:53.253Z,13.96
2022-10-17T01:00:26.555Z,13.95
2022-10-17T01:00:59.746Z,13.93
2022-10-17T01:01:32.993Z,13.92
2022-10-17T01:02:13.647Z,13.90
2022-10-17T01:02:46.957Z,13.88
2022-10-17T01:03:20.164Z,13.87
2022-10-17T01:03:53.355Z,13.85
2022-10-17T01:04:26.613Z,13.84
2022-10-17T01:04:59.873Z,13.83
2022-10-17T01:05:33.417Z,13.83
2022-10-17T01:06:06.557Z,13.83
2022-10-17T01:06:39.628Z,13.83
2022-10-17T01:07:13.242Z,13.84
2022-10-17T01:07:49.293Z,13.84
2022-10-17T01:08:22.414Z,13.84
2022-10-17T01:08:55.941Z,13.85
2022-10-17T01:09:29.280Z,13.84
2022-10-17T01:10:02.731Z,13.85
2022-10-17T01:11:00.298Z,13.84
2022-10-17T01:11:40.707Z,13.86
2022-10-17T01:12:50.886Z,13.88
2022-10-17T01:13:39.176Z,13.89
2022-10-17T01:14:31.800Z,13.92
2022-10-17T01:15:37.155Z,13.92
2022-10-17T01:16:27.592Z,13.93
2022-10-17T01:17:24.695Z,13.94
2022-10-17T01:18:34.140Z,13.94
2022-10-17T01:19:57.993Z,13.94
2022-10-17T01:20:49.744Z,13.94
2022-10-17T01:21:54.804Z,13.94
2022-10-17T01:22:41.639Z,13.95
2022-10-17T01:23:36.706Z,13.95
2022-10-17T01:24:38.027Z,13.93
2022-10-17T01:25:29.095Z,13.91
2022-10-17T01:26:14.660Z,13.89
2022-10-17T01:26:56.892Z,13.89
2022-10-17T01:27:36.765Z,13.88
2022-10-17T01:28:27.315Z,13.88
2022-10-17T01:29:15.623Z,13.88
2022-10-17T01:30:14.773Z,13.89
2022-10-17T01:31:06.992Z,13.90
2022-10-17T01:32:04.040Z,13.92
2022-10-17T01:32:47.787Z,13.93
2022-10-17T01:33:41.645Z,13.94
2022-10-17T01:34:33.752Z,13.94
2022-10-17T01:35:17.573Z,13.94
2022-10-17T01:36:07.698Z,13.94
2022-10-17T01:37:06.081Z,13.94
2022-10-17T01:37:56.365Z,13.93
2022-10-17T01:38:44.554Z,13.92
2022-10-17T01:39:40.754Z,13.90
2022-10-17T01:40:22.956Z,13.90
2022-10-17T01:41:21.389Z,13.88
2022-10-17T01:42:11.905Z,13.84
2022-10-17T01:43:23.367Z,13.82
2022-10-17T01:44:05.165Z,13.78
2022-10-17T01:45:00.305Z,13.75
2022-10-17T01:45:39.346Z,13.71
2022-10-17T01:46:23.382Z,13.69
2022-10-17T01:47:05.869Z,13.67
2022-10-17T01:47:41.366Z,13.64
2022-10-17T01:48:28.891Z,13.62
2022-10-17T01:49:04.760Z,13.59
2022-10-17T01:49:41.301Z,13.58
2022-10-17T01:50:24.670Z,13.57
2022-10-17T01:51:04.776Z,13.56
2022-10-17T01:51:53.276Z,13.54
2022-10-17T01:52:55.959Z,13.52
2022-10-17T01:53:34.240Z,13.51
2022-10-17T01:54:16.289Z,13.51
2022-10-17T01:55:00.058Z,13.50
2022-10-17T01:55:39.327Z,13.49
2022-10-17T01:56:15.285Z,13.49
2022-10-17T01:56:53.677Z,13.47
2022-10-17T01:57:35.589Z,13.45
2022-10-17T01:58:14.283Z,13.44
2022-10-17T01:58:59.925Z,13.43
2022-10-17T01:59:41.429Z,13.43
2022-10-17T02:00:20.073Z,13.43
2022-10-17T02:00:56.681Z,13.42
2022-10-17T02:01:31.552Z,13.40
2022-10-17T02:02:06.793Z,13.39
2022-10-17T02:02:43.941Z,13.37
2022-10-17T02:03:20.980Z,13.36
2022-10-17T02:03:56.771Z,13.36
2022-10-17T02:04:31.175Z,13.35
2022-10-17T02:05:08.688Z,13.35
2022-10-17T02:05:43.999Z,13.31
2022-10-17T02:06:17.415Z,13.29
2022-10-17T02:06:51.812Z,13.27
2022-10-17T02:07:25.146Z,13.24
2022-10-17T02:07:58.869Z,13.21
2022-10-17T02:08:44.818Z,13.19
2022-10-17T02:09:27.664Z,13.17
2022-10-17T02:10:00.770Z,13.16
2022-10-17T02:10:52.214Z,13.15
2022-10-17T02:11:27.940Z,13.12
2022-10-17T02:12:36.421Z,13.10
2022-10-17T02:13:38.093Z,13.07
2022-10-17T02:14:21.268Z,13.05
2022-10-17T02:15:12.958Z,13.05
2022-10-17T02:15:52.618Z,13.06
2022-10-17T02:16:55.507Z,13.04
2022-10-17T02:17:55.348Z,13.03
2022-10-17T02:18:42.262Z,13.03
2022-10-17T02:19:28.460Z,13.04
2022-10-17T02:20:04.500Z,13.04
2022-10-17T02:20:49.870Z,13.05
2022-10-17T02:21:26.029Z,13.04
2022-10-17T02:22:05.065Z,13.04
2022-10-17T02:22:46.996Z,13.04
2022-10-17T02:23:52.530Z,13.03
2022-10-17T02:24:36.883Z,13.02
2022-10-17T02:25:27.691Z,13.02
2022-10-17T02:26:06.790Z,13.02
2022-10-17T02:27:09.263Z,13.02
2022-10-17T02:27:53.031Z,13.00
2022-10-17T02:28:54.644Z,13.00
2022-10-17T02:29:43.837Z,13.07
2022-10-17T02:30:54.708Z,13.32
2022-10-17T02:31:36.422Z,13.79
2022-10-17T02:32:17.761Z,14.10
2022-10-17T02:33:06.731Z,14.41
2022-10-17T02:33:45.236Z,14.74
2022-10-17T02:34:33.334Z,14.93
2022-10-17T02:35:10.136Z,15.12
2022-10-17T02:35:52.779Z,15.21
2022-10-17T02:36:35.105Z,15.25
2022-10-17T02:37:11.959Z,15.18
2022-10-17T02:37:47.529Z,15.03
2022-10-17T02:38:23.131Z,14.85
2022-10-17T02:38:57.594Z,14.65
2022-10-17T02:39:32.417Z,14.44
2022-10-17T02:40:07.162Z,14.24
2022-10-17T02:40:41.636Z,14.04
2022-10-17T02:41:18.880Z,13.87
2022-10-17T02:41:54.281Z,13.69
2022-10-17T02:42:29.436Z,13.53
2022-10-17T02:43:03.122Z,13.46
2022-10-17T02:43:38.273Z,13.52
2022-10-17T02:44:12.309Z,13.72
2022-10-17T02:44:47.312Z,13.98
2022-10-17T02:45:22.145Z,14.29
2022-10-17T02:45:57.199Z,14.60
2022-10-17T02:46:31.974Z,14.86
2022-10-17T02:47:27.719Z,15.08
2022-10-17T02:48:33.301Z,15.37
2022-10-17T02:49:12.923Z,15.51
2022-10-17T02:49:51.882Z,15.45
2022-10-17T02:50:51.275Z,15.30
2022-10-17T02:51:27.384Z,14.97
2022-10-17T02:52:09.064Z,14.76
2022-10-17T02:53:04.081Z,14.52
2022-10-17T02:54:01.657Z,14.21
2022-10-17T02:54:45.607Z,13.93
2022-10-17T02:55:24.812Z,13.74
2022-10-17T02:56:03.094Z,13.58
2022-10-17T02:56:43.533Z,13.45
2022-10-17T02:57:23.798Z,13.32
2022-10-17T02:58:01.717Z,13.32
2022-10-17T02:58:37.073Z,13.41
2022-10-17T02:59:15.864Z,13.54
2022-10-17T02:59:50.954Z,13.70
2022-10-17T03:00:26.012Z,13.94
2022-10-17T03:01:00.927Z,14.21
2022-10-17T03:01:36.513Z,14.47
2022-10-17T03:02:09.759Z,14.66
2022-10-17T03:02:50.052Z,14.79
2022-10-17T03:03:26.987Z,14.87
2022-10-17T03:04:08.736Z,14.88
2022-10-17T03:04:46.731Z,14.78
2022-10-17T03:05:26.690Z,14.62
2022-10-17T03:05:59.885Z,14.42
2022-10-17T03:06:33.027Z,14.24
2022-10-17T03:07:06.215Z,14.07
2022-10-17T03:07:39.476Z,13.89
2022-10-17T03:08:13.384Z,13.72
2022-10-17T03:08:46.450Z,13.55
2022-10-17T03:09:19.584Z,13.42
2022-10-17T03:09:52.629Z,13.35
2022-10-17T03:10:25.793Z,13.41
2022-10-17T03:10:58.867Z,13.59
2022-10-17T03:11:32.030Z,13.83
2022-10-17T03:12:05.976Z,14.07
2022-10-17T03:12:39.347Z,14.26
2022-10-17T03:13:13.011Z,14.38
2022-10-17T03:13:46.208Z,14.45
2022-10-17T03:14:19.364Z,14.48
2022-10-17T03:14:52.516Z,14.49
2022-10-17T03:15:25.674Z,14.47
2022-10-17T03:15:58.857Z,14.43
2022-10-17T03:16:32.014Z,14.38
2022-10-17T03:17:05.146Z,14.32
2022-10-17T03:17:39.288Z,14.26
2022-10-17T03:18:13.095Z,14.20
2022-10-17T03:18:49.340Z,14.13
2022-10-17T03:19:24.451Z,14.12
2022-10-17T03:19:57.849Z,14.20
2022-10-17T03:20:30.989Z,14.36
2022-10-17T03:21:04.165Z,14.57
2022-10-17T03:21:38.487Z,14.77
2022-10-17T03:22:11.560Z,14.96
2022-10-17T03:22:44.730Z,15.05
2022-10-17T03:23:17.785Z,15.04
2022-10-17T03:23:50.718Z,14.93
2022-10-17T03:24:23.735Z,14.77
2022-10-17T03:24:56.913Z,14.59
2022-10-17T03:25:30.160Z,14.40
2022-10-17T03:26:05.469Z,14.20
2022-10-17T03:26:39.099Z,13.99
2022-10-17T03:27:12.469Z,13.82
2022-10-17T03:27:45.620Z,13.65
2022-10-17T03:28:18.668Z,13.50
2022-10-17T03:28:53.681Z,13.37
2022-10-17T03:29:27.828Z,13.30
2022-10-17T03:30:00.949Z,13.35
2022-10-17T03:30:34.276Z,13.48
2022-10-17T03:31:11.984Z,13.66
2022-10-17T03:31:45.044Z,13.89
2022-10-17T03:32:18.373Z,14.14
2022-10-17T03:32:51.461Z,14.41
2022-10-17T03:33:24.710Z,14.66
2022-10-17T03:33:57.894Z,14.88
2022-10-17T03:34:31.080Z,15.01
2022-10-17T03:35:04.690Z,15.02
2022-10-17T03:35:40.299Z,14.93
2022-10-17T03:36:16.940Z,14.76
2022-10-17T03:36:50.126Z,14.56
2022-10-17T03:37:23.202Z,14.35
2022-10-17T03:37:56.708Z,14.15
2022-10-17T03:38:30.016Z,13.96
2022-10-17T03:39:03.071Z,13.77
2022-10-17T03:39:36.438Z,13.60
2022-10-17T03:40:10.546Z,13.43
2022-10-17T03:40:43.611Z,13.28
2022-10-17T03:41:16.765Z,13.14
2022-10-17T03:41:50.143Z,13.01
2022-10-17T03:42:24.021Z,12.89
2022-10-17T03:42:57.406Z,12.79
2022-10-17T03:43:31.374Z,12.76
2022-10-17T03:44:04.968Z,12.84
2022-10-17T03:44:38.504Z,13.01
2022-10-17T03:45:11.673Z,13.20
2022-10-17T03:45:44.888Z,13.41
2022-10-17T03:46:55.929Z,13.77
2022-10-17T03:47:29.588Z,13.92
2022-10-17T03:48:02.839Z,14.07
2022-10-17T03:48:36.071Z,14.21
2022-10-17T03:49:10.366Z,14.30
2022-10-17T03:49:43.527Z,14.32
2022-10-17T03:50:16.743Z,14.26
2022-10-17T03:50:50.383Z,14.13
2022-10-17T03:51:23.491Z,13.96
2022-10-17T03:51:56.643Z,13.78
2022-10-17T03:52:29.816Z,13.60
2022-10-17T03:53:02.863Z,13.42
2022-10-17T03:53:36.285Z,13.24
2022-10-17T03:54:09.454Z,13.07
2022-10-17T03:54:43.319Z,12.92
2022-10-17T03:55:17.316Z,12.79
2022-10-17T03:55:50.415Z,12.72
2022-10-17T03:56:25.721Z,12.77
2022-10-17T03:56:59.227Z,12.96
2022-10-17T03:57:34.568Z,13.23
2022-10-17T03:58:07.713Z,13.52
2022-10-17T03:58:41.782Z,13.78
2022-10-17T03:59:16.005Z,14.02
2022-10-17T03:59:51.700Z,14.21
2022-10-17T04:00:24.812Z,14.39
2022-10-17T04:00:57.874Z,14.55
2022-10-17T04:01:31.216Z,14.62
2022-10-17T04:02:04.637Z,14.59
2022-10-17T04:02:38.169Z,14.48
2022-10-17T04:03:16.274Z,14.31
2022-10-17T04:03:56.121Z,14.08
2022-10-17T04:04:29.262Z,13.84
2022-10-17T04:05:02.528Z,13.65
2022-10-17T04:05:35.668Z,13.47
2022-10-17T04:06:12.131Z,13.29
2022-10-17T04:06:45.433Z,13.12
2022-10-17T04:07:18.575Z,12.97
2022-10-17T04:07:51.734Z,12.85
2022-10-17T04:08:25.107Z,12.83
2022-10-17T04:08:58.328Z,12.95
2022-10-17T04:09:31.534Z,13.18
2022-10-17T04:10:06.044Z,13.47
2022-10-17T04:10:39.141Z,13.77
2022-10-17T04:11:16.660Z,14.01
2022-10-17T04:11:49.930Z,14.26
2022-10-17T04:12:23.025Z,14.46
2022-10-17T04:12:56.223Z,14.63
2022-10-17T04:13:30.080Z,14.71
2022-10-17T04:14:03.455Z,14.69
2022-10-17T04:14:37.983Z,14.59
2022-10-17T04:15:11.463Z,14.41
2022-10-17T04:15:55.066Z,14.21
2022-10-17T04:16:28.669Z,13.95
2022-10-17T04:17:01.704Z,13.74
2022-10-17T04:17:37.966Z,13.56
2022-10-17T04:18:11.457Z,13.36
2022-10-17T04:18:45.089Z,13.19
2022-10-17T04:19:18.119Z,13.04
2022-10-17T04:19:51.866Z,12.90
2022-10-17T04:20:25.133Z,12.83
2022-10-17T04:20:58.574Z,12.91
2022-10-17T04:21:31.882Z,13.07
2022-10-17T04:22:05.145Z,13.30
2022-10-17T04:22:38.223Z,13.55
2022-10-17T04:23:11.334Z,13.80
2022-10-17T04:23:44.388Z,14.03
2022-10-17T04:24:17.553Z,14.25
2022-10-17T04:24:50.642Z,14.42
2022-10-17T04:25:23.911Z,14.56
2022-10-17T04:25:58.575Z,14.61
2022-10-17T04:26:32.186Z,14.56
2022-10-17T04:27:05.321Z,14.42
2022-10-17T04:27:38.389Z,14.25
2022-10-17T04:28:11.800Z,14.05
2022-10-17T04:28:44.900Z,13.86
2022-10-17T04:29:18.855Z,13.66
2022-10-17T04:29:52.031Z,13.48
2022-10-17T04:30:25.374Z,13.30
2022-10-17T04:31:11.932Z,13.12
2022-10-17T04:31:45.155Z,12.91
2022-10-17T04:32:18.421Z,12.78
2022-10-17T04:32:51.604Z,12.70
2022-10-17T04:33:24.747Z,12.74
2022-10-17T04:33:57.972Z,12.85
2022-10-17T04:34:31.255Z,13.05
2022-10-17T04:35:04.708Z,13.27
2022-10-17T04:35:37.914Z,13.52
2022-10-17T04:36:15.198Z,13.74
2022-10-17T04:36:48.556Z,13.95
2022-10-17T04:37:21.627Z,14.12
2022-10-17T04:37:54.683Z,14.28
2022-10-17T04:38:29.017Z,14.42
2022-10-17T04:39:05.238Z,14.55
2022-10-17T04:39:38.417Z,14.60
2022-10-17T04:40:11.800Z,14.55
2022-10-17T04:40:44.934Z,14.42
2022-10-17T04:41:19.644Z,14.24
2022-10-17T04:41:52.851Z,14.03
2022-10-17T04:42:26.090Z,13.84
2022-10-17T04:42:59.337Z,13.64
2022-10-17T04:43:37.051Z,13.46
2022-10-17T04:44:11.221Z,13.26
2022-10-17T04:44:44.427Z,13.09
2022-10-17T04:45:17.735Z,12.95
2022-10-17T04:45:50.904Z,12.82
2022-10-17T04:46:24.421Z,12.78
2022-10-17T04:46:57.628Z,12.88
2022-10-17T04:47:30.836Z,13.09
2022-10-17T04:48:04.246Z,13.38
2022-10-17T04:48:38.226Z,13.67
2022-10-17T04:49:11.459Z,13.93
2022-10-17T04:49:44.597Z,14.15
2022-10-17T04:50:17.801Z,14.36
2022-10-17T04:51:02.843Z,14.53
2022-10-17T04:51:35.879Z,14.63
2022-10-17T04:52:08.948Z,14.57
2022-10-17T04:52:42.027Z,14.44
2022-10-17T04:53:15.148Z,14.27
2022-10-17T04:53:48.343Z,14.07
2022-10-17T04:54:21.436Z,13.87
2022-10-17T04:54:54.487Z,13.66
2022-10-17T04:55:27.627Z,13.49
2022-10-17T04:56:01.919Z,13.30
2022-10-17T04:56:35.198Z,13.13
2022-10-17T04:57:08.569Z,12.97
2022-10-17T04:57:41.639Z,12.82
2022-10-17T04:58:15.100Z,12.71
2022-10-17T04:58:48.854Z,12.67
2022-10-17T04:59:22.091Z,12.77
2022-10-17T04:59:55.443Z,12.95
2022-10-17T05:00:28.627Z,13.19
2022-10-17T05:01:09.328Z,13.44
2022-10-17T05:01:42.429Z,13.73
2022-10-17T05:02:15.833Z,13.92
2022-10-17T05:02:48.935Z,14.15
2022-10-17T05:03:22.106Z,14.38
2022-10-17T05:03:56.258Z,14.56
2022-10-17T05:04:29.432Z,14.68
2022-10-17T05:05:02.527Z,14.67
2022-10-17T05:05:39.137Z,14.56
2022-10-17T05:06:24.083Z,14.37
2022-10-17T05:06:57.234Z,14.10
2022-10-17T05:07:30.468Z,13.90
2022-10-17T05:08:03.805Z,13.69
2022-10-17T05:08:37.232Z,13.49
2022-10-17T05:09:10.502Z,13.31
2022-10-17T05:09:43.572Z,13.13
2022-10-17T05:10:16.969Z,12.98
2022-10-17T05:10:50.165Z,12.83
2022-10-17T05:11:26.364Z,12.80
2022-10-17T05:11:59.482Z,12.91
2022-10-17T05:12:32.642Z,13.09
2022-10-17T05:13:06.840Z,13.34
2022-10-17T05:13:39.946Z,13.57
2022-10-17T05:14:13.085Z,13.78
2022-10-17T05:14:46.338Z,13.98
2022-10-17T05:15:19.448Z,14.16
2022-10-17T05:15:52.654Z,14.32
2022-10-17T05:16:27.124Z,14.47
2022-10-17T05:17:00.843Z,14.55
2022-10-17T05:17:34.023Z,14.52
2022-10-17T05:18:07.677Z,14.40
2022-10-17T05:18:41.059Z,14.22
2022-10-17T05:19:14.633Z,14.02
2022-10-17T05:19:47.797Z,13.81
2022-10-17T05:20:21.481Z,13.62
2022-10-17T05:20:55.915Z,13.42
2022-10-17T05:21:30.391Z,13.24
2022-10-17T05:22:03.726Z,13.07
2022-10-17T05:22:39.768Z,12.93
2022-10-17T05:23:15.355Z,12.84
2022-10-17T05:23:48.478Z,12.85
2022-10-17T05:24:22.120Z,12.91
2022-10-17T05:24:55.425Z,12.99
2022-10-17T05:25:28.620Z,13.07
2022-10-17T05:26:01.873Z,13.15
2022-10-17T05:26:35.364Z,13.22
2022-10-17T05:27:08.565Z,13.29
2022-10-17T05:27:41.917Z,13.34
2022-10-17T05:28:15.176Z,13.39
2022-10-17T05:28:48.680Z,13.44
2022-10-17T05:29:22.285Z,13.50
2022-10-17T05:29:55.465Z,13.56
2022-10-17T05:30:29.949Z,13.63
2022-10-17T05:31:07.599Z,13.68
2022-10-17T05:31:40.799Z,13.73
2022-10-17T05:32:15.827Z,13.75
2022-10-17T05:32:51.833Z,13.78
2022-10-17T05:33:25.084Z,13.80
2022-10-17T05:34:02.861Z,13.82
2022-10-17T05:34:36.300Z,13.83
2022-10-17T05:35:09.406Z,13.84
2022-10-17T05:35:42.754Z,13.86
2022-10-17T05:36:16.147Z,13.88
2022-10-17T05:36:49.214Z,13.90
2022-10-17T05:37:22.713Z,13.91
2022-10-17T05:37:55.945Z,13.93
2022-10-17T05:38:29.299Z,13.93
2022-10-17T05:39:02.610Z,13.94
2022-10-17T05:39:35.840Z,13.95
2022-10-17T05:40:09.665Z,13.94
2022-10-17T05:40:43.036Z,13.96
2022-10-17T05:41:16.222Z,13.97
2022-10-17T05:41:51.470Z,13.99
2022-10-17T05:42:24.893Z,14.01
2022-10-17T05:42:58.009Z,14.03
2022-10-17T05:43:31.729Z,14.06
2022-10-17T05:44:05.744Z,14.07
2022-10-17T05:44:40.025Z,14.09
2022-10-17T05:45:13.372Z,14.09
2022-10-17T05:45:46.563Z,14.09
2022-10-17T05:46:19.787Z,14.11
2022-10-17T05:46:52.876Z,14.13
2022-10-17T05:47:25.963Z,14.17
2022-10-17T05:47:59.179Z,14.18
2022-10-17T05:48:32.648Z,14.21
2022-10-17T05:49:19.443Z,14.20
2022-10-17T05:49:58.696Z,14.17
2022-10-17T05:50:32.048Z,14.16
2022-10-17T05:51:08.984Z,14.17
2022-10-17T05:51:42.583Z,14.17
2022-10-17T05:52:15.843Z,14.16
2022-10-17T05:52:54.024Z,14.16
2022-10-17T05:53:30.212Z,14.14
2022-10-17T05:54:06.451Z,14.14
2022-10-17T05:54:39.636Z,14.13
2022-10-17T05:55:13.549Z,14.14
2022-10-17T05:55:46.816Z,14.14
2022-10-17T05:56:20.769Z,14.13
2022-10-17T05:56:56.069Z,14.12
2022-10-17T05:57:29.225Z,14.11
2022-10-17T05:58:02.754Z,14.10
2022-10-17T05:58:49.690Z,14.11
2022-10-17T05:59:26.273Z,14.10
2022-10-17T05:59:59.477Z,14.12
2022-10-17T06:00:32.865Z,14.13
2022-10-17T06:01:10.638Z,14.13
2022-10-17T06:01:46.024Z,14.14
2022-10-17T06:02:19.656Z,14.14
2022-10-17T06:02:53.022Z,14.15
2022-10-17T06:03:26.438Z,14.15
2022-10-17T06:03:59.569Z,14.17
2022-10-17T06:04:32.972Z,14.18
2022-10-17T06:05:06.505Z,14.20
2022-10-17T06:05:39.600Z,14.21
2022-10-17T06:06:14.452Z,14.23
2022-10-17T06:06:48.183Z,14.25
2022-10-17T06:07:21.631Z,14.26
2022-10-17T06:07:58.218Z,14.28
2022-10-17T06:08:34.734Z,14.27
2022-10-17T06:09:08.950Z,14.30
2022-10-17T06:09:42.558Z,14.40
2022-10-17T06:10:17.571Z,14.57
2022-10-17T06:10:51.265Z,14.77
2022-10-17T06:11:24.410Z,14.94
2022-10-17T06:11:57.642Z,15.08
2022-10-17T06:12:31.057Z,15.15
2022-10-17T06:13:04.586Z,15.20
2022-10-17T06:13:38.810Z,15.21
2022-10-17T06:14:11.977Z,15.22
2022-10-17T06:14:45.288Z,15.21
2022-10-17T06:15:18.569Z,15.17
2022-10-17T06:15:52.270Z,15.13
2022-10-17T06:16:25.425Z,15.06
2022-10-17T06:16:59.492Z,15.00
2022-10-17T06:17:32.719Z,14.94
2022-10-17T06:18:05.979Z,14.88
2022-10-17T06:18:39.605Z,14.85
2022-10-17T06:19:12.955Z,14.87
2022-10-17T06:19:46.087Z,14.98
2022-10-17T06:20:19.362Z,15.13
2022-10-17T06:20:53.125Z,15.31
2022-10-17T06:21:27.555Z,15.46
2022-10-17T06:22:00.652Z,15.61
2022-10-17T06:22:33.772Z,15.73
2022-10-17T06:23:06.998Z,15.81
2022-10-17T06:23:40.460Z,15.86
2022-10-17T06:24:13.629Z,15.86
2022-10-17T06:24:46.687Z,15.86
2022-10-17T06:25:19.775Z,15.86
2022-10-17T06:25:52.863Z,15.87
2022-10-17T06:26:26.072Z,15.88
2022-10-17T06:26:59.610Z,15.88
2022-10-17T06:27:32.999Z,15.87
2022-10-17T06:28:06.373Z,15.87
2022-10-17T06:28:40.108Z,15.87
2022-10-17T06:29:14.202Z,15.87
2022-10-17T06:29:48.402Z,15.87
2022-10-17T06:30:21.530Z,15.85
2022-10-17T06:30:55.198Z,15.84
2022-10-17T06:31:28.575Z,15.80
2022-10-17T06:32:01.822Z,15.80
2022-10-17T06:32:35.282Z,15.79
2022-10-17T06:33:08.794Z,15.79
2022-10-17T06:33:42.251Z,15.79
2022-10-17T06:34:15.429Z,15.78
2022-10-17T06:34:48.606Z,15.76
2022-10-17T06:35:22.335Z,15.76
2022-10-17T06:35:56.923Z,15.80
2022-10-17T06:36:29.991Z,15.92
2022-10-17T06:37:03.161Z,16.04
2022-10-17T06:37:38.001Z,16.15
2022-10-17T06:38:11.452Z,16.24
2022-10-17T06:38:44.802Z,16.31
2022-10-17T06:39:18.084Z,16.33
2022-10-17T06:39:51.258Z,16.34
2022-10-17T06:40:24.556Z,16.33
2022-10-17T06:41:10.349Z,16.32
2022-10-17T06:41:44.940Z,16.28
2022-10-17T06:42:18.525Z,16.25
2022-10-17T06:42:51.714Z,16.24
2022-10-17T06:43:27.781Z,16.20
2022-10-17T06:44:01.295Z,16.18
2022-10-17T06:44:34.763Z,16.15
2022-10-17T06:45:09.163Z,16.11
2022-10-17T06:45:42.833Z,16.06
2022-10-17T06:46:18.171Z,16.01
2022-10-17T06:46:51.397Z,15.93
2022-10-17T06:47:24.536Z,15.87
2022-10-17T06:47:57.621Z,15.83
2022-10-17T06:48:30.769Z,15.79
2022-10-17T06:49:05.037Z,15.76
2022-10-17T06:49:38.193Z,15.73
2022-10-17T06:50:11.377Z,15.69
2022-10-17T06:50:44.659Z,15.65
2022-10-17T06:51:18.866Z,15.62
2022-10-17T06:51:52.011Z,15.60
2022-10-17T06:52:25.317Z,15.57
2022-10-17T06:52:58.403Z,15.55
2022-10-17T06:53:34.152Z,15.55
2022-10-17T06:54:07.324Z,15.53
2022-10-17T06:54:40.651Z,15.51
2022-10-17T06:55:15.824Z,15.49
2022-10-17T06:55:54.234Z,15.47
2022-10-17T06:56:27.313Z,15.46
2022-10-17T06:57:00.681Z,15.44
2022-10-17T06:57:33.800Z,15.43
2022-10-17T06:58:06.883Z,15.44
2022-10-17T06:58:40.991Z,15.43
2022-10-17T06:59:15.849Z,15.42
2022-10-17T06:59:49.008Z,15.42
2022-10-17T07:00:23.652Z,15.42
2022-10-17T07:01:05.971Z,15.43
2022-10-17T07:01:41.775Z,15.43
2022-10-17T07:02:17.769Z,15.42
2022-10-17T07:02:50.945Z,15.44
2022-10-17T07:03:24.112Z,15.50
2022-10-17T07:03:57.295Z,15.65
2022-10-17T07:04:30.714Z,15.89
2022-10-17T07:05:04.259Z,16.18
2022-10-17T07:05:37.611Z,16.42
2022-10-17T07:06:13.469Z,16.59
2022-10-17T07:06:46.706Z,16.69
2022-10-17T07:07:19.861Z,16.73
2022-10-17T07:07:53.109Z,16.74
2022-10-17T07:08:27.046Z,16.73
2022-10-17T07:09:02.982Z,16.70
2022-10-17T07:09:36.277Z,16.67
2022-10-17T07:10:09.925Z,16.64
2022-10-17T07:10:43.322Z,16.59
2022-10-17T07:11:19.784Z,16.56
2022-10-17T07:11:52.977Z,16.54
2022-10-17T07:12:26.619Z,16.54
2022-10-17T07:12:59.660Z,16.54
2022-10-17T07:13:36.806Z,16.54
2022-10-17T07:14:12.193Z,16.53
2022-10-17T07:14:47.475Z,16.52
2022-10-17T07:15:20.637Z,16.50
2022-10-17T07:16:31.869Z,16.46
2022-10-17T07:17:05.169Z,16.44
2022-10-17T07:17:38.322Z,16.43
2022-10-17T07:18:11.668Z,16.45
2022-10-17T07:18:44.942Z,16.46
2022-10-17T07:19:18.163Z,16.47
2022-10-17T07:19:51.328Z,16.44
2022-10-17T07:20:24.483Z,16.42
2022-10-17T07:20:57.865Z,16.40
2022-10-17T07:21:34.069Z,16.36
2022-10-17T07:22:10.499Z,16.35
2022-10-17T07:22:43.931Z,16.34
2022-10-17T07:23:17.140Z,16.35
2022-10-17T07:23:50.439Z,16.36
2022-10-17T07:24:23.568Z,16.37
2022-10-17T07:24:56.728Z,16.38
2022-10-17T07:25:30.133Z,16.39
2022-10-17T07:26:09.220Z,16.43
2022-10-17T07:26:42.619Z,16.50
2022-10-17T07:27:16.111Z,16.57
2022-10-17T07:27:53.366Z,16.62
2022-10-17T07:28:26.482Z,16.66
2022-10-17T07:28:59.845Z,16.69
2022-10-17T07:29:32.983Z,16.71
2022-10-17T07:30:06.971Z,16.71
2022-10-17T07:30:40.156Z,16.70
2022-10-17T07:31:17.655Z,16.68
2022-10-17T07:31:52.249Z,16.66
2022-10-17T07:32:25.330Z,16.71
2022-10-17T07:32:58.528Z,16.84
2022-10-17T07:33:31.650Z,17.02
2022-10-17T07:34:05.171Z,17.20
2022-10-17T07:34:38.336Z,17.32
2022-10-17T07:35:12.973Z,17.45
2022-10-17T07:35:46.251Z,17.62
2022-10-17T07:36:19.476Z,17.80
2022-10-17T07:36:53.362Z,18.02
2022-10-17T07:37:26.837Z,18.24
2022-10-17T07:38:00.409Z,18.49
2022-10-17T07:38:34.384Z,18.69
2022-10-17T07:39:07.859Z,18.87
2022-10-17T07:39:40.988Z,18.99
2022-10-17T07:40:14.061Z,19.02
2022-10-17T07:40:54.439Z,19.04
2022-10-17T07:41:28.211Z,19.10
2022-10-17T07:42:01.383Z,19.16
2022-10-17T07:43:15.740Z,19.20
2022-10-17T07:43:48.844Z,19.12
2022-10-17T07:44:21.953Z,18.97
2022-10-17T07:44:55.422Z,18.81
2022-10-17T07:45:28.595Z,18.64
2022-10-17T07:46:02.487Z,18.47
2022-10-17T07:46:36.160Z,18.28
2022-10-17T07:47:09.551Z,18.10
2022-10-17T07:47:43.201Z,17.97
2022-10-17T07:48:16.724Z,17.83
2022-10-17T07:48:49.874Z,17.77
2022-10-17T07:49:23.150Z,17.85
2022-10-17T07:49:56.471Z,18.04
2022-10-17T07:50:29.556Z,18.30